sensor_id;sensor_type;location;lat;lon;timestamp;temperature;humidity
10911;DHT22;5508;49.150;11.030;2024-02-26T00:02:22;0.10;99.90
10911;DHT22;5508;49.150;11.030;2024-02-26T00:05:22;0.10;99.90
10911;DHT22;5508;49.150;11.030;2024-02-26T00:08:23;-0.10;99.90
10911;DHT22;5508;49.150;11.030;2024-02-26T00:11:23;-0.10;99.90
10911;DHT22;5508;49.150;11.030;2024-02-26T00:14:24;-0.10;99.90
10911;DHT22;5508;49.150;11.030;2024-02-26T00:17:25;-0.30;99.90
10911;DHT22;5508;49.150;11.030;2024-02-26T00:20:25;-0.20;99.90
10911;DHT22;5508;49.150;11.030;2024-02-26T00:23:26;-0.30;99.90
10911;DHT22;5508;49.150;11.030;2024-02-26T00:26:27;-0.40;99.90
10911;DHT22;5508;49.150;11.030;2024-02-26T00:29:28;-0.40;99.90
10911;DHT22;5508;49.150;11.030;2024-02-26T00:32:29;-0.40;99.90
10911;DHT22;5508;49.150;11.030;2024-02-26T00:35:29;-0.50;99.90
10911;DHT22;5508;49.150;11.030;2024-02-26T00:38:30;-0.60;99.90
10911;DHT22;5508;49.150;11.030;2024-02-26T00:41:30;-0.60;99.90
10911;DHT22;5508;49.150;11.030;2024-02-26T00:44:31;-0.70;99.90
10911;DHT22;5508;49.150;11.030;2024-02-26T00:47:32;-0.70;99.90
10911;DHT22;5508;49.150;11.030;2024-02-26T00:50:36;-0.70;99.90
10911;DHT22;5508;49.150;11.030;2024-02-26T00:53:36;-0.80;99.90
10911;DHT22;5508;49.150;11.030;2024-02-26T00:56:37;-0.80;99.90
10911;DHT22;5508;49.150;11.030;2024-02-26T00:59:37;-0.80;99.90
10911;DHT22;5508;49.150;11.030;2024-02-26T01:02:38;-0.90;99.90
10911;DHT22;5508;49.150;11.030;2024-02-26T01:05:39;-0.90;99.90
10911;DHT22;5508;49.150;11.030;2024-02-26T01:08:39;-1.00;99.90
10911;DHT22;5508;49.150;11.030;2024-02-26T01:11:40;-1.00;99.90
10911;DHT22;5508;49.150;11.030;2024-02-26T01:14:40;-1.10;99.90
10911;DHT22;5508;49.150;11.030;2024-02-26T01:17:41;-1.10;99.90
10911;DHT22;5508;49.150;11.030;2024-02-26T01:20:42;-1.10;99.90
10911;DHT22;5508;49.150;11.030;2024-02-26T01:23:42;-1.10;99.90
10911;DHT22;5508;49.150;11.030;2024-02-26T01:26:43;-1.10;99.90
10911;DHT22;5508;49.150;11.030;2024-02-26T01:29:44;-1.10;99.90
10911;DHT22;5508;49.150;11.030;2024-02-26T01:32:45;-1.00;99.90
10911;DHT22;5508;49.150;11.030;2024-02-26T01:35:45;-1.00;99.90
10911;DHT22;5508;49.150;11.030;2024-02-26T01:38:47;-1.00;99.90
10911;DHT22;5508;49.150;11.030;2024-02-26T01:41:47;-1.10;99.90
10911;DHT22;5508;49.150;11.030;2024-02-26T01:44:48;-1.10;99.90
10911;DHT22;5508;49.150;11.030;2024-02-26T01:47:50;-1.10;99.90
10911;DHT22;5508;49.150;11.030;2024-02-26T01:50:51;-1.00;99.90
10911;DHT22;5508;49.150;11.030;2024-02-26T01:53:52;-1.00;99.90
10911;DHT22;5508;49.150;11.030;2024-02-26T01:56:53;-0.90;99.90
10911;DHT22;5508;49.150;11.030;2024-02-26T01:59:54;-0.90;99.90
10911;DHT22;5508;49.150;11.030;2024-02-26T02:02:55;-0.80;99.90
10911;DHT22;5508;49.150;11.030;2024-02-26T02:05:56;-0.70;99.90
10911;DHT22;5508;49.150;11.030;2024-02-26T02:08:57;-0.70;99.90
10911;DHT22;5508;49.150;11.030;2024-02-26T02:11:58;-0.60;99.90
10911;DHT22;5508;49.150;11.030;2024-02-26T02:14:59;-0.50;99.90
10911;DHT22;5508;49.150;11.030;2024-02-26T02:18:00;-0.50;99.90
10911;DHT22;5508;49.150;11.030;2024-02-26T02:21:01;-0.40;99.90
10911;DHT22;5508;49.150;11.030;2024-02-26T02:24:02;-0.30;99.90
10911;DHT22;5508;49.150;11.030;2024-02-26T02:27:03;-0.30;99.90
10911;DHT22;5508;49.150;11.030;2024-02-26T02:30:05;-0.20;99.90
10911;DHT22;5508;49.150;11.030;2024-02-26T02:33:06;-0.10;99.90
10911;DHT22;5508;49.150;11.030;2024-02-26T02:36:07;-0.10;99.90
10911;DHT22;5508;49.150;11.030;2024-02-26T02:39:10;0.00;99.90
10911;DHT22;5508;49.150;11.030;2024-02-26T02:42:11;0.10;99.90
10911;DHT22;5508;49.150;11.030;2024-02-26T02:45:12;0.10;99.90
10911;DHT22;5508;49.150;11.030;2024-02-26T02:48:13;0.20;99.90
10911;DHT22;5508;49.150;11.030;2024-02-26T02:51:13;0.30;99.90
10911;DHT22;5508;49.150;11.030;2024-02-26T02:54:14;0.20;99.90
10911;DHT22;5508;49.150;11.030;2024-02-26T02:57:14;0.10;99.90
10911;DHT22;5508;49.150;11.030;2024-02-26T03:00:15;0.00;99.90
10911;DHT22;5508;49.150;11.030;2024-02-26T03:03:16;0.10;99.90
10911;DHT22;5508;49.150;11.030;2024-02-26T03:06:17;0.10;99.90
10911;DHT22;5508;49.150;11.030;2024-02-26T03:09:17;0.10;99.90
10911;DHT22;5508;49.150;11.030;2024-02-26T03:12:18;0.00;99.90
10911;DHT22;5508;49.150;11.030;2024-02-26T03:15:19;0.10;99.90
10911;DHT22;5508;49.150;11.030;2024-02-26T03:18:19;0.10;99.90
10911;DHT22;5508;49.150;11.030;2024-02-26T03:21:20;0.00;99.90
10911;DHT22;5508;49.150;11.030;2024-02-26T03:24:21;0.00;99.90
10911;DHT22;5508;49.150;11.030;2024-02-26T03:27:22;0.00;99.90
10911;DHT22;5508;49.150;11.030;2024-02-26T03:30:22;0.00;99.90
10911;DHT22;5508;49.150;11.030;2024-02-26T03:33:23;-0.10;99.90
10911;DHT22;5508;49.150;11.030;2024-02-26T03:36:23;0.00;99.90
10911;DHT22;5508;49.150;11.030;2024-02-26T03:39:24;0.00;99.90
10911;DHT22;5508;49.150;11.030;2024-02-26T03:42:24;0.00;99.90
10911;DHT22;5508;49.150;11.030;2024-02-26T03:45:25;0.10;99.90
10911;DHT22;5508;49.150;11.030;2024-02-26T03:48:26;0.10;99.90
10911;DHT22;5508;49.150;11.030;2024-02-26T03:51:27;0.10;99.90
10911;DHT22;5508;49.150;11.030;2024-02-26T03:54:31;0.10;99.90
10911;DHT22;5508;49.150;11.030;2024-02-26T03:57:32;0.20;99.90
10911;DHT22;5508;49.150;11.030;2024-02-26T04:00:32;0.20;99.90
10911;DHT22;5508;49.150;11.030;2024-02-26T04:03:33;0.20;99.90
10911;DHT22;5508;49.150;11.030;2024-02-26T04:06:34;0.10;99.90
10911;DHT22;5508;49.150;11.030;2024-02-26T04:09:35;0.20;99.90
10911;DHT22;5508;49.150;11.030;2024-02-26T04:12:37;0.20;99.90
10911;DHT22;5508;49.150;11.030;2024-02-26T04:15:38;0.30;99.90
10911;DHT22;5508;49.150;11.030;2024-02-26T04:18:38;0.30;99.90
10911;DHT22;5508;49.150;11.030;2024-02-26T04:21:41;0.30;99.90
10911;DHT22;5508;49.150;11.030;2024-02-26T04:24:41;0.40;99.90
10911;DHT22;5508;49.150;11.030;2024-02-26T04:27:42;0.40;99.90
10911;DHT22;5508;49.150;11.030;2024-02-26T04:30:43;0.50;99.90
10911;DHT22;5508;49.150;11.030;2024-02-26T04:33:43;0.50;99.90
10911;DHT22;5508;49.150;11.030;2024-02-26T04:36:44;0.50;99.90
10911;DHT22;5508;49.150;11.030;2024-02-26T04:39:44;0.50;99.90
10911;DHT22;5508;49.150;11.030;2024-02-26T04:42:45;0.50;99.90
10911;DHT22;5508;49.150;11.030;2024-02-26T04:45:46;0.50;99.90
10911;DHT22;5508;49.150;11.030;2024-02-26T04:48:47;0.50;99.90
10911;DHT22;5508;49.150;11.030;2024-02-26T04:51:48;0.50;99.90
10911;DHT22;5508;49.150;11.030;2024-02-26T04:54:48;0.50;99.90
10911;DHT22;5508;49.150;11.030;2024-02-26T04:57:49;0.50;99.90
10911;DHT22;5508;49.150;11.030;2024-02-26T05:00:49;0.40;99.90
10911;DHT22;5508;49.150;11.030;2024-02-26T05:03:50;0.40;99.90
10911;DHT22;5508;49.150;11.030;2024-02-26T05:06:51;0.40;99.90
10911;DHT22;5508;49.150;11.030;2024-02-26T05:09:51;0.40;99.90
10911;DHT22;5508;49.150;11.030;2024-02-26T05:12:52;0.50;99.90
10911;DHT22;5508;49.150;11.030;2024-02-26T05:15:53;0.50;99.90
10911;DHT22;5508;49.150;11.030;2024-02-26T05:18:53;0.60;99.90
10911;DHT22;5508;49.150;11.030;2024-02-26T05:21:54;0.60;99.90
10911;DHT22;5508;49.150;11.030;2024-02-26T05:24:55;0.50;99.90
10911;DHT22;5508;49.150;11.030;2024-02-26T05:27:55;0.60;99.90
10911;DHT22;5508;49.150;11.030;2024-02-26T05:30:56;0.70;99.90
10911;DHT22;5508;49.150;11.030;2024-02-26T05:33:57;0.70;99.90
10911;DHT22;5508;49.150;11.030;2024-02-26T05:36:57;0.80;99.90
10911;DHT22;5508;49.150;11.030;2024-02-26T05:39:58;0.80;99.90
10911;DHT22;5508;49.150;11.030;2024-02-26T05:42:59;0.80;99.90
10911;DHT22;5508;49.150;11.030;2024-02-26T05:45:59;0.80;99.90
10911;DHT22;5508;49.150;11.030;2024-02-26T05:49:00;0.90;99.90
10911;DHT22;5508;49.150;11.030;2024-02-26T05:52:01;1.00;99.90
10911;DHT22;5508;49.150;11.030;2024-02-26T05:55:01;0.90;99.90
10911;DHT22;5508;49.150;11.030;2024-02-26T05:58:03;0.80;99.90
10911;DHT22;5508;49.150;11.030;2024-02-26T06:01:03;0.80;99.90
10911;DHT22;5508;49.150;11.030;2024-02-26T06:04:04;0.90;99.90
10911;DHT22;5508;49.150;11.030;2024-02-26T06:07:05;0.90;99.90
10911;DHT22;5508;49.150;11.030;2024-02-26T06:10:05;0.90;99.90
10911;DHT22;5508;49.150;11.030;2024-02-26T06:13:06;0.90;99.90
10911;DHT22;5508;49.150;11.030;2024-02-26T06:16:08;1.00;99.90
10911;DHT22;5508;49.150;11.030;2024-02-26T06:19:08;0.90;99.90
10911;DHT22;5508;49.150;11.030;2024-02-26T06:22:09;0.90;99.90
10911;DHT22;5508;49.150;11.030;2024-02-26T06:25:10;0.80;99.90
10911;DHT22;5508;49.150;11.030;2024-02-26T06:28:10;0.90;99.90
10911;DHT22;5508;49.150;11.030;2024-02-26T06:31:11;1.00;99.90
10911;DHT22;5508;49.150;11.030;2024-02-26T06:34:11;1.10;99.90
10911;DHT22;5508;49.150;11.030;2024-02-26T06:37:12;1.10;99.90
10911;DHT22;5508;49.150;11.030;2024-02-26T06:40:13;1.20;99.90
10911;DHT22;5508;49.150;11.030;2024-02-26T06:43:14;1.40;99.90
10911;DHT22;5508;49.150;11.030;2024-02-26T06:46:14;1.40;99.90
10911;DHT22;5508;49.150;11.030;2024-02-26T06:49:15;1.50;99.90
10911;DHT22;5508;49.150;11.030;2024-02-26T06:52:15;1.50;99.90
10911;DHT22;5508;49.150;11.030;2024-02-26T06:55:16;1.60;99.90
10911;DHT22;5508;49.150;11.030;2024-02-26T06:58:17;1.60;99.90
10911;DHT22;5508;49.150;11.030;2024-02-26T07:01:18;1.70;99.90
10911;DHT22;5508;49.150;11.030;2024-02-26T07:04:19;1.80;99.90
10911;DHT22;5508;49.150;11.030;2024-02-26T07:07:19;1.80;99.90
10911;DHT22;5508;49.150;11.030;2024-02-26T07:10:20;1.90;99.90
10911;DHT22;5508;49.150;11.030;2024-02-26T07:13:21;2.00;99.90
10911;DHT22;5508;49.150;11.030;2024-02-26T07:16:22;2.10;99.90
10911;DHT22;5508;49.150;11.030;2024-02-26T07:19:22;2.20;99.90
10911;DHT22;5508;49.150;11.030;2024-02-26T07:22:23;2.30;99.90
10911;DHT22;5508;49.150;11.030;2024-02-26T07:25:24;2.40;99.90
10911;DHT22;5508;49.150;11.030;2024-02-26T07:28:25;2.60;99.90
10911;DHT22;5508;49.150;11.030;2024-02-26T07:31:26;2.70;99.90
10911;DHT22;5508;49.150;11.030;2024-02-26T07:34:26;2.70;99.90
10911;DHT22;5508;49.150;11.030;2024-02-26T07:37:30;2.70;99.90
10911;DHT22;5508;49.150;11.030;2024-02-26T07:40:31;2.80;99.90
10911;DHT22;5508;49.150;11.030;2024-02-26T07:43:31;2.80;99.90
10911;DHT22;5508;49.150;11.030;2024-02-26T07:46:32;2.90;99.90
10911;DHT22;5508;49.150;11.030;2024-02-26T07:49:32;2.90;99.90
10911;DHT22;5508;49.150;11.030;2024-02-26T07:52:33;3.00;99.90
10911;DHT22;5508;49.150;11.030;2024-02-26T07:55:34;3.20;99.90
10911;DHT22;5508;49.150;11.030;2024-02-26T07:58:34;3.40;99.90
10911;DHT22;5508;49.150;11.030;2024-02-26T08:01:35;3.60;99.90
10911;DHT22;5508;49.150;11.030;2024-02-26T08:04:39;3.80;99.90
10911;DHT22;5508;49.150;11.030;2024-02-26T08:07:39;4.00;99.90
10911;DHT22;5508;49.150;11.030;2024-02-26T08:10:40;4.30;99.50
10911;DHT22;5508;49.150;11.030;2024-02-26T08:13:40;4.50;97.90
10911;DHT22;5508;49.150;11.030;2024-02-26T08:16:41;4.70;97.60
10911;DHT22;5508;49.150;11.030;2024-02-26T08:19:41;4.90;95.60
10911;DHT22;5508;49.150;11.030;2024-02-26T08:22:42;5.00;93.60
10911;DHT22;5508;49.150;11.030;2024-02-26T08:25:43;5.20;92.10
10911;DHT22;5508;49.150;11.030;2024-02-26T08:28:43;5.20;90.20
10911;DHT22;5508;49.150;11.030;2024-02-26T08:31:45;5.30;91.60
10911;DHT22;5508;49.150;11.030;2024-02-26T08:34:45;5.50;88.60
10911;DHT22;5508;49.150;11.030;2024-02-26T08:37:47;5.70;88.90
10911;DHT22;5508;49.150;11.030;2024-02-26T08:40:48;5.90;86.90
10911;DHT22;5508;49.150;11.030;2024-02-26T08:43:49;5.90;85.40
10911;DHT22;5508;49.150;11.030;2024-02-26T08:46:49;6.00;83.70
10911;DHT22;5508;49.150;11.030;2024-02-26T08:49:51;5.90;85.00
10911;DHT22;5508;49.150;11.030;2024-02-26T08:52:51;5.90;84.70
10911;DHT22;5508;49.150;11.030;2024-02-26T08:55:53;5.90;83.20
10911;DHT22;5508;49.150;11.030;2024-02-26T08:58:54;6.00;83.40
10911;DHT22;5508;49.150;11.030;2024-02-26T09:01:57;5.90;84.40
10911;DHT22;5508;49.150;11.030;2024-02-26T09:04:57;6.10;83.70
10911;DHT22;5508;49.150;11.030;2024-02-26T09:07:58;6.20;81.00
10911;DHT22;5508;49.150;11.030;2024-02-26T09:10:59;6.30;81.30
10911;DHT22;5508;49.150;11.030;2024-02-26T09:13:59;6.30;80.60
10911;DHT22;5508;49.150;11.030;2024-02-26T09:17:00;6.40;83.70
10911;DHT22;5508;49.150;11.030;2024-02-26T09:20:02;6.50;83.70
10911;DHT22;5508;49.150;11.030;2024-02-26T09:23:03;6.70;78.60
10911;DHT22;5508;49.150;11.030;2024-02-26T09:26:05;6.80;78.30
10911;DHT22;5508;49.150;11.030;2024-02-26T09:29:06;6.90;74.30
10911;DHT22;5508;49.150;11.030;2024-02-26T09:32:08;7.00;76.20
10911;DHT22;5508;49.150;11.030;2024-02-26T09:35:09;7.20;73.20
10911;DHT22;5508;49.150;11.030;2024-02-26T09:38:09;7.30;73.50
10911;DHT22;5508;49.150;11.030;2024-02-26T09:41:14;7.60;73.20
10911;DHT22;5508;49.150;11.030;2024-02-26T09:44:21;7.80;74.00
10911;DHT22;5508;49.150;11.030;2024-02-26T09:47:23;8.10;73.00
10911;DHT22;5508;49.150;11.030;2024-02-26T09:50:24;8.40;70.90
10911;DHT22;5508;49.150;11.030;2024-02-26T09:53:25;8.30;67.60
10911;DHT22;5508;49.150;11.030;2024-02-26T09:56:25;8.20;70.00
10911;DHT22;5508;49.150;11.030;2024-02-26T09:59:27;8.30;69.90
10911;DHT22;5508;49.150;11.030;2024-02-26T10:02:28;8.40;72.00
10911;DHT22;5508;49.150;11.030;2024-02-26T10:05:29;8.50;70.40
10911;DHT22;5508;49.150;11.030;2024-02-26T10:08:30;8.60;68.90
10911;DHT22;5508;49.150;11.030;2024-02-26T10:11:32;8.70;68.80
10911;DHT22;5508;49.150;11.030;2024-02-26T10:14:33;8.80;72.00
10911;DHT22;5508;49.150;11.030;2024-02-26T10:17:36;8.90;70.10
10911;DHT22;5508;49.150;11.030;2024-02-26T10:20:38;9.10;69.90
10911;DHT22;5508;49.150;11.030;2024-02-26T10:23:38;9.40;68.20
10911;DHT22;5508;49.150;11.030;2024-02-26T10:26:46;9.40;66.20
10911;DHT22;5508;49.150;11.030;2024-02-26T10:29:46;9.40;67.20
10911;DHT22;5508;49.150;11.030;2024-02-26T10:32:50;9.50;66.00
10911;DHT22;5508;49.150;11.030;2024-02-26T10:35:51;9.60;64.40
10911;DHT22;5508;49.150;11.030;2024-02-26T10:38:55;9.60;63.80
10911;DHT22;5508;49.150;11.030;2024-02-26T10:41:55;9.60;62.60
10911;DHT22;5508;49.150;11.030;2024-02-26T10:44:58;9.60;63.40
10911;DHT22;5508;49.150;11.030;2024-02-26T10:47:59;9.70;63.90
10911;DHT22;5508;49.150;11.030;2024-02-26T10:51:00;9.80;67.50
10911;DHT22;5508;49.150;11.030;2024-02-26T10:54:02;10.00;66.40
10911;DHT22;5508;49.150;11.030;2024-02-26T10:57:08;10.10;61.60
10911;DHT22;5508;49.150;11.030;2024-02-26T11:00:13;9.90;60.80
10911;DHT22;5508;49.150;11.030;2024-02-26T11:03:15;10.20;64.20
10911;DHT22;5508;49.150;11.030;2024-02-26T11:06:21;10.30;63.70
10911;DHT22;5508;49.150;11.030;2024-02-26T11:09:22;10.50;59.80
10911;DHT22;5508;49.150;11.030;2024-02-26T11:12:24;10.50;57.80
10911;DHT22;5508;49.150;11.030;2024-02-26T11:15:25;10.40;58.00
10911;DHT22;5508;49.150;11.030;2024-02-26T11:18:27;10.40;57.50
10911;DHT22;5508;49.150;11.030;2024-02-26T11:21:28;10.50;56.40
10911;DHT22;5508;49.150;11.030;2024-02-26T11:24:38;10.70;58.20
10911;DHT22;5508;49.150;11.030;2024-02-26T11:27:54;11.10;60.00
10911;DHT22;5508;49.150;11.030;2024-02-26T11:30:59;11.40;60.00
10911;DHT22;5508;49.150;11.030;2024-02-26T11:34:01;11.60;57.10
10911;DHT22;5508;49.150;11.030;2024-02-26T11:37:14;11.60;54.80
10911;DHT22;5508;49.150;11.030;2024-02-26T11:40:17;11.40;53.50
10911;DHT22;5508;49.150;11.030;2024-02-26T11:43:23;11.40;56.20
10911;DHT22;5508;49.150;11.030;2024-02-26T11:52:28;11.80;52.80
10911;DHT22;5508;49.150;11.030;2024-02-26T11:55:32;11.90;53.80
10911;DHT22;5508;49.150;11.030;2024-02-26T11:58:32;12.10;54.60
10911;DHT22;5508;49.150;11.030;2024-02-26T12:04:44;12.10;53.50
10911;DHT22;5508;49.150;11.030;2024-02-26T12:07:49;12.10;53.60
10911;DHT22;5508;49.150;11.030;2024-02-26T12:10:50;12.00;51.90
10911;DHT22;5508;49.150;11.030;2024-02-26T12:13:51;12.00;51.00
10911;DHT22;5508;49.150;11.030;2024-02-26T12:16:52;12.30;50.60
10911;DHT22;5508;49.150;11.030;2024-02-26T12:19:53;11.90;52.50
10911;DHT22;5508;49.150;11.030;2024-02-26T12:22:54;11.60;56.00
10911;DHT22;5508;49.150;11.030;2024-02-26T12:26:00;11.60;54.90
10911;DHT22;5508;49.150;11.030;2024-02-26T12:29:00;11.60;54.20
10911;DHT22;5508;49.150;11.030;2024-02-26T12:32:03;11.60;51.90
10911;DHT22;5508;49.150;11.030;2024-02-26T12:35:05;11.70;52.00
10911;DHT22;5508;49.150;11.030;2024-02-26T12:38:06;11.80;52.70
10911;DHT22;5508;49.150;11.030;2024-02-26T12:41:07;12.10;51.30
10911;DHT22;5508;49.150;11.030;2024-02-26T12:44:08;12.20;50.50
10911;DHT22;5508;49.150;11.030;2024-02-26T12:47:09;12.30;49.10
10911;DHT22;5508;49.150;11.030;2024-02-26T12:50:11;12.40;48.90
10911;DHT22;5508;49.150;11.030;2024-02-26T12:53:11;12.40;53.30
10911;DHT22;5508;49.150;11.030;2024-02-26T12:56:12;12.30;51.00
10911;DHT22;5508;49.150;11.030;2024-02-26T12:59:13;12.40;51.80
10911;DHT22;5508;49.150;11.030;2024-02-26T13:02:14;12.50;50.90
10911;DHT22;5508;49.150;11.030;2024-02-26T13:05:16;12.30;49.10
10911;DHT22;5508;49.150;11.030;2024-02-26T13:08:20;12.00;52.60
10911;DHT22;5508;49.150;11.030;2024-02-26T13:11:21;11.70;50.10
10911;DHT22;5508;49.150;11.030;2024-02-26T13:14:22;11.80;53.80
10911;DHT22;5508;49.150;11.030;2024-02-26T13:17:23;11.80;51.00
10911;DHT22;5508;49.150;11.030;2024-02-26T13:20:27;11.60;52.10
10911;DHT22;5508;49.150;11.030;2024-02-26T13:23:28;11.30;52.30
10911;DHT22;5508;49.150;11.030;2024-02-26T13:26:29;11.30;54.00
10911;DHT22;5508;49.150;11.030;2024-02-26T13:29:29;11.40;56.70
10911;DHT22;5508;49.150;11.030;2024-02-26T13:32:32;11.50;54.50
10911;DHT22;5508;49.150;11.030;2024-02-26T13:35:33;11.60;54.10
10911;DHT22;5508;49.150;11.030;2024-02-26T13:38:35;11.60;53.50
10911;DHT22;5508;49.150;11.030;2024-02-26T13:41:35;11.80;55.40
10911;DHT22;5508;49.150;11.030;2024-02-26T13:44:36;11.70;52.60
10911;DHT22;5508;49.150;11.030;2024-02-26T13:47:39;11.60;51.60
10911;DHT22;5508;49.150;11.030;2024-02-26T13:50:42;11.50;54.00
10911;DHT22;5508;49.150;11.030;2024-02-26T13:53:43;11.40;52.70
10911;DHT22;5508;49.150;11.030;2024-02-26T13:56:44;11.30;54.40
10911;DHT22;5508;49.150;11.030;2024-02-26T13:59:45;11.20;52.40
10911;DHT22;5508;49.150;11.030;2024-02-26T14:02:45;11.10;53.70
10911;DHT22;5508;49.150;11.030;2024-02-26T14:05:46;11.10;54.80
10911;DHT22;5508;49.150;11.030;2024-02-26T14:08:47;11.00;55.30
10911;DHT22;5508;49.150;11.030;2024-02-26T14:11:48;11.00;54.90
10911;DHT22;5508;49.150;11.030;2024-02-26T14:14:49;11.00;55.00
10911;DHT22;5508;49.150;11.030;2024-02-26T14:17:50;11.10;55.60
10911;DHT22;5508;49.150;11.030;2024-02-26T14:20:56;11.10;56.20
10911;DHT22;5508;49.150;11.030;2024-02-26T14:23:57;11.10;55.60
10911;DHT22;5508;49.150;11.030;2024-02-26T14:26:57;11.00;56.50
10911;DHT22;5508;49.150;11.030;2024-02-26T14:29:58;11.00;56.60
10911;DHT22;5508;49.150;11.030;2024-02-26T14:32:58;11.00;54.30
10911;DHT22;5508;49.150;11.030;2024-02-26T14:35:59;10.90;55.60
10911;DHT22;5508;49.150;11.030;2024-02-26T14:39:00;10.90;55.40
10911;DHT22;5508;49.150;11.030;2024-02-26T14:42:01;10.70;55.20
10911;DHT22;5508;49.150;11.030;2024-02-26T14:45:02;10.50;56.50
10911;DHT22;5508;49.150;11.030;2024-02-26T14:48:03;10.40;58.60
10911;DHT22;5508;49.150;11.030;2024-02-26T14:51:03;10.30;57.00
10911;DHT22;5508;49.150;11.030;2024-02-26T14:54:06;10.20;59.90
10911;DHT22;5508;49.150;11.030;2024-02-26T14:57:07;10.20;59.30
10911;DHT22;5508;49.150;11.030;2024-02-26T15:00:08;10.20;57.90
10911;DHT22;5508;49.150;11.030;2024-02-26T15:03:10;10.20;60.30
10911;DHT22;5508;49.150;11.030;2024-02-26T15:06:10;10.20;60.00
10911;DHT22;5508;49.150;11.030;2024-02-26T15:09:11;10.10;61.90
10911;DHT22;5508;49.150;11.030;2024-02-26T15:12:12;10.10;58.80
10911;DHT22;5508;49.150;11.030;2024-02-26T15:15:12;10.00;58.70
10911;DHT22;5508;49.150;11.030;2024-02-26T15:18:13;9.90;62.00
10911;DHT22;5508;49.150;11.030;2024-02-26T15:21:16;9.80;62.00
10911;DHT22;5508;49.150;11.030;2024-02-26T15:24:16;9.70;62.30
10911;DHT22;5508;49.150;11.030;2024-02-26T15:27:17;9.70;61.20
10911;DHT22;5508;49.150;11.030;2024-02-26T15:30:18;9.60;63.40
10911;DHT22;5508;49.150;11.030;2024-02-26T15:33:18;9.60;60.80
10911;DHT22;5508;49.150;11.030;2024-02-26T15:36:19;9.60;62.20
10911;DHT22;5508;49.150;11.030;2024-02-26T15:39:20;9.50;62.70
10911;DHT22;5508;49.150;11.030;2024-02-26T15:42:21;9.40;63.00
10911;DHT22;5508;49.150;11.030;2024-02-26T15:45:22;9.30;66.70
10911;DHT22;5508;49.150;11.030;2024-02-26T15:48:25;9.20;65.00
10911;DHT22;5508;49.150;11.030;2024-02-26T15:51:25;9.20;66.00
10911;DHT22;5508;49.150;11.030;2024-02-26T15:54:26;9.10;64.70
10911;DHT22;5508;49.150;11.030;2024-02-26T15:57:27;9.10;65.70
10911;DHT22;5508;49.150;11.030;2024-02-26T16:00:28;9.10;64.40
10911;DHT22;5508;49.150;11.030;2024-02-26T16:03:28;9.00;64.40
10911;DHT22;5508;49.150;11.030;2024-02-26T16:06:32;9.00;66.20
10911;DHT22;5508;49.150;11.030;2024-02-26T16:09:34;9.00;65.00
10911;DHT22;5508;49.150;11.030;2024-02-26T16:12:41;8.90;64.50
10911;DHT22;5508;49.150;11.030;2024-02-26T16:15:47;9.00;64.80
10911;DHT22;5508;49.150;11.030;2024-02-26T16:18:50;8.90;64.60
10911;DHT22;5508;49.150;11.030;2024-02-26T16:21:50;8.90;64.90
10911;DHT22;5508;49.150;11.030;2024-02-26T16:24:51;8.80;67.00
10911;DHT22;5508;49.150;11.030;2024-02-26T16:27:52;8.70;66.70
10911;DHT22;5508;49.150;11.030;2024-02-26T16:30:53;8.70;68.00
10911;DHT22;5508;49.150;11.030;2024-02-26T16:33:54;8.60;67.60
10911;DHT22;5508;49.150;11.030;2024-02-26T16:36:55;8.50;68.30
10911;DHT22;5508;49.150;11.030;2024-02-26T16:39:58;8.40;69.30
10911;DHT22;5508;49.150;11.030;2024-02-26T16:42:59;8.40;67.60
10911;DHT22;5508;49.150;11.030;2024-02-26T16:46:00;8.40;69.00
10911;DHT22;5508;49.150;11.030;2024-02-26T16:49:01;8.30;67.60
10911;DHT22;5508;49.150;11.030;2024-02-26T16:52:02;8.30;69.20
10911;DHT22;5508;49.150;11.030;2024-02-26T16:55:03;8.20;67.40
10911;DHT22;5508;49.150;11.030;2024-02-26T16:58:04;8.30;67.60
10911;DHT22;5508;49.150;11.030;2024-02-26T17:01:06;8.20;67.70
10911;DHT22;5508;49.150;11.030;2024-02-26T17:04:07;8.20;67.90
10911;DHT22;5508;49.150;11.030;2024-02-26T17:07:08;8.20;68.30
10911;DHT22;5508;49.150;11.030;2024-02-26T17:10:08;8.20;67.90
10911;DHT22;5508;49.150;11.030;2024-02-26T17:16:10;8.00;68.60
10911;DHT22;5508;49.150;11.030;2024-02-26T17:19:11;7.90;70.30
10911;DHT22;5508;49.150;11.030;2024-02-26T17:22:11;7.80;70.70
10911;DHT22;5508;49.150;11.030;2024-02-26T17:25:12;7.80;71.00
10911;DHT22;5508;49.150;11.030;2024-02-26T17:28:16;7.80;70.90
10911;DHT22;5508;49.150;11.030;2024-02-26T17:31:18;7.70;71.60
10911;DHT22;5508;49.150;11.030;2024-02-26T17:34:20;7.70;72.30
10911;DHT22;5508;49.150;11.030;2024-02-26T17:37:20;7.70;72.20
10911;DHT22;5508;49.150;11.030;2024-02-26T17:40:21;7.60;72.50
10911;DHT22;5508;49.150;11.030;2024-02-26T17:43:22;7.60;72.80
10911;DHT22;5508;49.150;11.030;2024-02-26T17:46:23;7.50;74.00
10911;DHT22;5508;49.150;11.030;2024-02-26T17:49:24;7.50;74.50
10911;DHT22;5508;49.150;11.030;2024-02-26T17:52:27;7.40;74.00
10911;DHT22;5508;49.150;11.030;2024-02-26T17:55:28;7.40;74.20
10911;DHT22;5508;49.150;11.030;2024-02-26T17:58:28;7.40;74.60
10911;DHT22;5508;49.150;11.030;2024-02-26T18:01:31;7.30;75.30
10911;DHT22;5508;49.150;11.030;2024-02-26T18:04:32;7.30;75.20
10911;DHT22;5508;49.150;11.030;2024-02-26T18:07:33;7.20;75.80
10911;DHT22;5508;49.150;11.030;2024-02-26T18:10:34;7.20;76.10
10911;DHT22;5508;49.150;11.030;2024-02-26T18:13:34;7.20;77.50
10911;DHT22;5508;49.150;11.030;2024-02-26T18:16:36;7.10;78.20
10911;DHT22;5508;49.150;11.030;2024-02-26T18:19:37;7.10;78.50
10911;DHT22;5508;49.150;11.030;2024-02-26T18:22:38;7.00;78.70
10911;DHT22;5508;49.150;11.030;2024-02-26T18:25:39;7.00;78.90
10911;DHT22;5508;49.150;11.030;2024-02-26T18:28:40;6.90;81.10
10911;DHT22;5508;49.150;11.030;2024-02-26T18:31:40;6.90;81.70
10911;DHT22;5508;49.150;11.030;2024-02-26T18:34:42;6.90;82.40
10911;DHT22;5508;49.150;11.030;2024-02-26T18:37:42;6.80;82.50
10911;DHT22;5508;49.150;11.030;2024-02-26T18:40:43;6.80;82.40
10911;DHT22;5508;49.150;11.030;2024-02-26T18:43:44;6.80;82.00
10911;DHT22;5508;49.150;11.030;2024-02-26T18:46:45;6.90;81.00
10911;DHT22;5508;49.150;11.030;2024-02-26T18:49:46;6.90;80.60
10911;DHT22;5508;49.150;11.030;2024-02-26T18:52:46;6.90;81.00
10911;DHT22;5508;49.150;11.030;2024-02-26T18:55:48;6.90;81.00
10911;DHT22;5508;49.150;11.030;2024-02-26T18:58:49;6.90;81.20
10911;DHT22;5508;49.150;11.030;2024-02-26T19:01:50;6.90;82.00
10911;DHT22;5508;49.150;11.030;2024-02-26T19:04:51;7.00;81.80
10911;DHT22;5508;49.150;11.030;2024-02-26T19:07:52;7.10;82.00
10911;DHT22;5508;49.150;11.030;2024-02-26T19:10:58;7.00;83.10
10911;DHT22;5508;49.150;11.030;2024-02-26T19:13:59;7.10;83.10
10911;DHT22;5508;49.150;11.030;2024-02-26T19:17:00;7.00;83.00
10911;DHT22;5508;49.150;11.030;2024-02-26T19:20:00;7.00;83.30
10911;DHT22;5508;49.150;11.030;2024-02-26T19:23:01;7.00;84.20
10911;DHT22;5508;49.150;11.030;2024-02-26T19:26:02;6.90;85.70
10911;DHT22;5508;49.150;11.030;2024-02-26T19:29:04;6.90;85.40